Weather at Morrison Heliport

Public forecast

Using degrees Celsius for public forecast. Weather courtesy of forecast.io.

Closest aviation weather report (METAR) to Morrison Heliport

Report is more than 6 hours old.

Closest report is Sauce Viejo Airport, 63.0 nm (116.7 km) ENE. Retrieved 2022/01/17 00:34 UTC (6 days ago):

SAAV 170034Z 20020G42KT 8000 TS SCT030 FEW045CB OVC100 29/22 Q1002 RMK PP///

Closest aviation forecast (TAF) to Morrison Heliport

Forecast is more than 12 hours old.

Closest forecast is Sauce Viejo Airport, 63.0 nm (116.7 km) ENE. Retrieved 2021-12-21 00:24 UTC (1 month ago):

TAF TAF SAAV 202300Z 2100/2124 18005KT CAVOK TX38/2118Z TN23/2109Z BECMG 2116/2118 18015KT TEMPO 2118/2121 7000 TSRA FEW050CB